sensor_id;sensor_type;location;lat;lon;timestamp;temperature;humidity
38239;DHT22;24035;48.900;9.188;2023-03-14T00:01:23;9.70;1.00
38239;DHT22;24035;48.900;9.188;2023-03-14T00:03:49;9.80;1.00
38239;DHT22;24035;48.900;9.188;2023-03-14T00:06:15;9.80;1.00
38239;DHT22;24035;48.900;9.188;2023-03-14T00:08:42;9.90;99.90
38239;DHT22;24035;48.900;9.188;2023-03-14T00:11:11;9.90;99.90
38239;DHT22;24035;48.900;9.188;2023-03-14T00:13:37;9.90;99.90
38239;DHT22;24035;48.900;9.188;2023-03-14T00:16:10;9.90;99.90
38239;DHT22;24035;48.900;9.188;2023-03-14T00:18:36;9.90;99.90
38239;DHT22;24035;48.900;9.188;2023-03-14T00:21:04;9.90;99.90
38239;DHT22;24035;48.900;9.188;2023-03-14T00:23:31;9.90;99.90
38239;DHT22;24035;48.900;9.188;2023-03-14T00:26:06;10.00;99.90
38239;DHT22;24035;48.900;9.188;2023-03-14T00:28:32;10.00;60.10
38239;DHT22;24035;48.900;9.188;2023-03-14T00:30:58;9.90;1.00
38239;DHT22;24035;48.900;9.188;2023-03-14T00:33:25;9.90;8.20
38239;DHT22;24035;48.900;9.188;2023-03-14T00:35:58;9.90;97.70
38239;DHT22;24035;48.900;9.188;2023-03-14T00:38:25;9.90;99.90
38239;DHT22;24035;48.900;9.188;2023-03-14T00:40:51;9.80;99.90
38239;DHT22;24035;48.900;9.188;2023-03-14T00:43:18;9.90;99.90
38239;DHT22;24035;48.900;9.188;2023-03-14T00:45:44;9.90;99.90
38239;DHT22;24035;48.900;9.188;2023-03-14T00:48:09;9.80;99.90
38239;DHT22;24035;48.900;9.188;2023-03-14T00:50:35;9.90;99.90
38239;DHT22;24035;48.900;9.188;2023-03-14T00:53:01;9.80;99.90
38239;DHT22;24035;48.900;9.188;2023-03-14T00:55:26;9.80;99.90
38239;DHT22;24035;48.900;9.188;2023-03-14T00:57:52;9.90;99.90
38239;DHT22;24035;48.900;9.188;2023-03-14T01:00:18;9.80;5.40
38239;DHT22;24035;48.900;9.188;2023-03-14T01:02:43;9.80;27.80
38239;DHT22;24035;48.900;9.188;2023-03-14T01:05:09;9.90;1.00
38239;DHT22;24035;48.900;9.188;2023-03-14T01:07:37;9.80;1.00
38239;DHT22;24035;48.900;9.188;2023-03-14T01:10:05;9.80;1.00
38239;DHT22;24035;48.900;9.188;2023-03-14T01:12:32;9.80;1.00
38239;DHT22;24035;48.900;9.188;2023-03-14T01:14:58;9.90;99.90
38239;DHT22;24035;48.900;9.188;2023-03-14T01:17:24;9.90;62.70
38239;DHT22;24035;48.900;9.188;2023-03-14T01:19:49;9.90;99.90
38239;DHT22;24035;48.900;9.188;2023-03-14T01:22:15;9.90;1.00
38239;DHT22;24035;48.900;9.188;2023-03-14T01:24:41;9.90;1.00
38239;DHT22;24035;48.900;9.188;2023-03-14T01:27:06;9.90;1.00
38239;DHT22;24035;48.900;9.188;2023-03-14T01:29:32;10.00;99.90
38239;DHT22;24035;48.900;9.188;2023-03-14T01:31:58;10.00;99.90
38239;DHT22;24035;48.900;9.188;2023-03-14T01:34:23;10.00;1.00
38239;DHT22;24035;48.900;9.188;2023-03-14T01:36:49;10.00;1.00
38239;DHT22;24035;48.900;9.188;2023-03-14T01:39:15;10.00;1.00
38239;DHT22;24035;48.900;9.188;2023-03-14T01:41:41;10.00;1.00
38239;DHT22;24035;48.900;9.188;2023-03-14T01:44:13;10.00;1.00
38239;DHT22;24035;48.900;9.188;2023-03-14T01:46:43;10.00;1.00
38239;DHT22;24035;48.900;9.188;2023-03-14T01:51:56;9.90;99.90
38239;DHT22;24035;48.900;9.188;2023-03-14T01:57:12;9.80;1.00
38239;DHT22;24035;48.900;9.188;2023-03-14T01:59:40;9.80;1.00
38239;DHT22;24035;48.900;9.188;2023-03-14T02:02:09;9.80;1.00
38239;DHT22;24035;48.900;9.188;2023-03-14T02:04:38;9.70;1.00
38239;DHT22;24035;48.900;9.188;2023-03-14T02:09:46;9.70;1.00
38239;DHT22;24035;48.900;9.188;2023-03-14T02:12:15;9.80;1.00
38239;DHT22;24035;48.900;9.188;2023-03-14T02:14:41;9.80;99.90
38239;DHT22;24035;48.900;9.188;2023-03-14T02:17:14;9.80;99.90
38239;DHT22;24035;48.900;9.188;2023-03-14T02:22:26;9.80;99.90
38239;DHT22;24035;48.900;9.188;2023-03-14T02:27:38;9.90;1.00
38239;DHT22;24035;48.900;9.188;2023-03-14T02:32:33;9.90;1.00
38239;DHT22;24035;48.900;9.188;2023-03-14T02:35:04;9.90;99.90
38239;DHT22;24035;48.900;9.188;2023-03-14T02:37:37;10.00;99.90
38239;DHT22;24035;48.900;9.188;2023-03-14T02:40:04;9.90;1.00
38239;DHT22;24035;48.900;9.188;2023-03-14T02:42:30;10.00;1.00
38239;DHT22;24035;48.900;9.188;2023-03-14T02:47:33;9.90;10.40
38239;DHT22;24035;48.900;9.188;2023-03-14T02:50:16;10.00;1.00
38239;DHT22;24035;48.900;9.188;2023-03-14T02:52:43;10.00;1.00
38239;DHT22;24035;48.900;9.188;2023-03-14T02:55:09;10.00;1.00
38239;DHT22;24035;48.900;9.188;2023-03-14T02:57:34;10.00;1.00
38239;DHT22;24035;48.900;9.188;2023-03-14T03:00:01;10.00;1.00
38239;DHT22;24035;48.900;9.188;2023-03-14T03:02:29;10.00;28.50
38239;DHT22;24035;48.900;9.188;2023-03-14T03:04:55;9.90;29.10
38239;DHT22;24035;48.900;9.188;2023-03-14T03:07:21;9.90;54.30
38239;DHT22;24035;48.900;9.188;2023-03-14T03:09:47;9.90;1.00
38239;DHT22;24035;48.900;9.188;2023-03-14T03:12:13;9.90;1.00
38239;DHT22;24035;48.900;9.188;2023-03-14T03:14:39;9.90;1.00
38239;DHT22;24035;48.900;9.188;2023-03-14T03:17:05;9.90;1.00
38239;DHT22;24035;48.900;9.188;2023-03-14T03:19:32;9.80;1.00
38239;DHT22;24035;48.900;9.188;2023-03-14T03:21:58;9.80;4.90
38239;DHT22;24035;48.900;9.188;2023-03-14T03:24:24;9.80;1.00
38239;DHT22;24035;48.900;9.188;2023-03-14T03:26:50;9.80;1.00
38239;DHT22;24035;48.900;9.188;2023-03-14T03:29:16;9.70;1.00
38239;DHT22;24035;48.900;9.188;2023-03-14T03:31:42;9.80;1.00
38239;DHT22;24035;48.900;9.188;2023-03-14T03:34:08;9.80;1.00
38239;DHT22;24035;48.900;9.188;2023-03-14T03:36:39;9.80;1.00
38239;DHT22;24035;48.900;9.188;2023-03-14T03:39:08;9.70;1.00
38239;DHT22;24035;48.900;9.188;2023-03-14T03:41:35;9.70;99.90
38239;DHT22;24035;48.900;9.188;2023-03-14T03:44:03;9.70;99.90
38239;DHT22;24035;48.900;9.188;2023-03-14T03:46:31;9.80;99.90
38239;DHT22;24035;48.900;9.188;2023-03-14T03:49:00;9.70;99.90
38239;DHT22;24035;48.900;9.188;2023-03-14T03:51:29;9.70;99.90
38239;DHT22;24035;48.900;9.188;2023-03-14T03:53:56;9.60;99.90
38239;DHT22;24035;48.900;9.188;2023-03-14T03:56:25;9.70;99.90
38239;DHT22;24035;48.900;9.188;2023-03-14T03:58:51;9.60;99.90
38239;DHT22;24035;48.900;9.188;2023-03-14T04:01:16;9.60;99.90
38239;DHT22;24035;48.900;9.188;2023-03-14T04:03:42;9.70;50.10
38239;DHT22;24035;48.900;9.188;2023-03-14T04:06:10;9.60;1.00
38239;DHT22;24035;48.900;9.188;2023-03-14T04:08:41;9.60;8.00
38239;DHT22;24035;48.900;9.188;2023-03-14T04:11:09;9.60;1.00
38239;DHT22;24035;48.900;9.188;2023-03-14T04:13:36;9.60;1.00
38239;DHT22;24035;48.900;9.188;2023-03-14T04:16:02;9.50;1.00
38239;DHT22;24035;48.900;9.188;2023-03-14T04:18:32;9.50;1.00
38239;DHT22;24035;48.900;9.188;2023-03-14T04:20:58;9.50;1.00
38239;DHT22;24035;48.900;9.188;2023-03-14T04:23:25;9.50;1.00
38239;DHT22;24035;48.900;9.188;2023-03-14T04:25:52;9.40;1.00
38239;DHT22;24035;48.900;9.188;2023-03-14T04:28:19;9.40;1.00
38239;DHT22;24035;48.900;9.188;2023-03-14T04:30:48;9.50;1.00
38239;DHT22;24035;48.900;9.188;2023-03-14T04:33:17;9.40;1.00
38239;DHT22;24035;48.900;9.188;2023-03-14T04:35:44;9.50;1.00
38239;DHT22;24035;48.900;9.188;2023-03-14T04:38:10;9.40;1.00
38239;DHT22;24035;48.900;9.188;2023-03-14T04:40:41;9.30;1.00
38239;DHT22;24035;48.900;9.188;2023-03-14T04:43:12;9.40;1.00
38239;DHT22;24035;48.900;9.188;2023-03-14T04:45:45;9.30;1.00
38239;DHT22;24035;48.900;9.188;2023-03-14T04:48:11;9.30;1.00
38239;DHT22;24035;48.900;9.188;2023-03-14T04:50:39;9.30;1.00
38239;DHT22;24035;48.900;9.188;2023-03-14T04:53:05;9.20;1.00
38239;DHT22;24035;48.900;9.188;2023-03-14T04:55:33;9.20;1.00
38239;DHT22;24035;48.900;9.188;2023-03-14T04:58:01;9.30;1.00
38239;DHT22;24035;48.900;9.188;2023-03-14T05:00:29;9.30;99.90
38239;DHT22;24035;48.900;9.188;2023-03-14T05:02:55;9.20;1.00
38239;DHT22;24035;48.900;9.188;2023-03-14T05:05:24;9.30;1.00
38239;DHT22;24035;48.900;9.188;2023-03-14T05:07:53;9.30;99.90
38239;DHT22;24035;48.900;9.188;2023-03-14T05:10:19;9.40;99.90
38239;DHT22;24035;48.900;9.188;2023-03-14T05:12:46;9.30;99.90
38239;DHT22;24035;48.900;9.188;2023-03-14T05:15:12;9.30;99.90
38239;DHT22;24035;48.900;9.188;2023-03-14T05:17:39;9.30;99.90
38239;DHT22;24035;48.900;9.188;2023-03-14T05:20:09;9.30;99.90
38239;DHT22;24035;48.900;9.188;2023-03-14T05:22:38;9.10;1.00
38239;DHT22;24035;48.900;9.188;2023-03-14T05:25:05;9.00;1.00
38239;DHT22;24035;48.900;9.188;2023-03-14T05:27:31;8.90;1.00
38239;DHT22;24035;48.900;9.188;2023-03-14T05:29:58;9.00;1.00
38239;DHT22;24035;48.900;9.188;2023-03-14T05:32:24;8.90;1.00
38239;DHT22;24035;48.900;9.188;2023-03-14T05:34:50;9.00;1.00
38239;DHT22;24035;48.900;9.188;2023-03-14T05:37:16;9.00;1.00
38239;DHT22;24035;48.900;9.188;2023-03-14T05:39:42;9.00;99.90
38239;DHT22;24035;48.900;9.188;2023-03-14T05:42:08;9.10;99.90
38239;DHT22;24035;48.900;9.188;2023-03-14T05:44:33;9.00;99.90
38239;DHT22;24035;48.900;9.188;2023-03-14T05:46:59;9.00;99.90
38239;DHT22;24035;48.900;9.188;2023-03-14T05:49:25;9.10;1.00
38239;DHT22;24035;48.900;9.188;2023-03-14T05:51:51;9.10;99.90
38239;DHT22;24035;48.900;9.188;2023-03-14T05:54:17;9.20;99.90
38239;DHT22;24035;48.900;9.188;2023-03-14T05:56:42;9.30;99.90
38239;DHT22;24035;48.900;9.188;2023-03-14T05:59:08;9.30;99.90
38239;DHT22;24035;48.900;9.188;2023-03-14T06:01:34;9.40;99.90
38239;DHT22;24035;48.900;9.188;2023-03-14T06:04:00;9.50;99.40
38239;DHT22;24035;48.900;9.188;2023-03-14T06:06:25;9.40;98.90
38239;DHT22;24035;48.900;9.188;2023-03-14T06:08:51;9.40;99.90
38239;DHT22;24035;48.900;9.188;2023-03-14T06:11:17;9.40;99.90
38239;DHT22;24035;48.900;9.188;2023-03-14T06:13:42;9.40;80.10
38239;DHT22;24035;48.900;9.188;2023-03-14T06:16:08;9.50;99.90
38239;DHT22;24035;48.900;9.188;2023-03-14T06:18:34;9.50;46.20
38239;DHT22;24035;48.900;9.188;2023-03-14T06:21:00;9.40;29.20
38239;DHT22;24035;48.900;9.188;2023-03-14T06:23:26;9.50;36.20
38239;DHT22;24035;48.900;9.188;2023-03-14T06:25:52;9.40;61.60
38239;DHT22;24035;48.900;9.188;2023-03-14T06:31:40;9.40;93.10
38239;DHT22;24035;48.900;9.188;2023-03-14T06:34:06;9.40;99.90
38239;DHT22;24035;48.900;9.188;2023-03-14T06:36:32;9.30;99.90
38239;DHT22;24035;48.900;9.188;2023-03-14T06:38:57;9.30;99.90
38239;DHT22;24035;48.900;9.188;2023-03-14T06:41:23;9.30;99.90
38239;DHT22;24035;48.900;9.188;2023-03-14T06:43:51;9.40;99.90
38239;DHT22;24035;48.900;9.188;2023-03-14T06:46:17;9.40;99.90
38239;DHT22;24035;48.900;9.188;2023-03-14T06:48:42;9.50;7.70
38239;DHT22;24035;48.900;9.188;2023-03-14T06:51:08;9.50;1.00
38239;DHT22;24035;48.900;9.188;2023-03-14T06:53:34;9.50;1.00
38239;DHT22;24035;48.900;9.188;2023-03-14T06:56:00;9.50;1.00
38239;DHT22;24035;48.900;9.188;2023-03-14T06:58:26;9.60;1.00
38239;DHT22;24035;48.900;9.188;2023-03-14T07:00:53;9.60;1.00
38239;DHT22;24035;48.900;9.188;2023-03-14T07:03:19;9.70;1.00
38239;DHT22;24035;48.900;9.188;2023-03-14T07:05:48;9.70;1.00
38239;DHT22;24035;48.900;9.188;2023-03-14T07:08:14;9.90;1.00
38239;DHT22;24035;48.900;9.188;2023-03-14T07:10:40;9.90;1.00
38239;DHT22;24035;48.900;9.188;2023-03-14T07:13:05;10.10;1.00
38239;DHT22;24035;48.900;9.188;2023-03-14T07:15:31;10.30;1.00
38239;DHT22;24035;48.900;9.188;2023-03-14T07:17:56;10.50;1.00
38239;DHT22;24035;48.900;9.188;2023-03-14T07:20:22;10.70;99.90
38239;DHT22;24035;48.900;9.188;2023-03-14T07:22:49;11.00;99.90
38239;DHT22;24035;48.900;9.188;2023-03-14T07:25:15;11.30;99.90
38239;DHT22;24035;48.900;9.188;2023-03-14T07:27:43;11.50;99.90
38239;DHT22;24035;48.900;9.188;2023-03-14T07:30:10;11.50;98.60
38239;DHT22;24035;48.900;9.188;2023-03-14T07:32:36;11.70;9.80
38239;DHT22;24035;48.900;9.188;2023-03-14T07:35:02;11.90;1.00
38239;DHT22;24035;48.900;9.188;2023-03-14T07:37:28;11.90;3.70
38239;DHT22;24035;48.900;9.188;2023-03-14T07:39:54;12.10;1.00
38239;DHT22;24035;48.900;9.188;2023-03-14T07:42:20;12.40;1.00
38239;DHT22;24035;48.900;9.188;2023-03-14T07:44:45;12.70;1.00
38239;DHT22;24035;48.900;9.188;2023-03-14T07:47:11;12.80;1.00
38239;DHT22;24035;48.900;9.188;2023-03-14T07:49:38;12.80;1.00
38239;DHT22;24035;48.900;9.188;2023-03-14T07:52:04;12.70;1.00
38239;DHT22;24035;48.900;9.188;2023-03-14T07:54:30;12.70;1.00
38239;DHT22;24035;48.900;9.188;2023-03-14T07:56:55;12.70;1.00
38239;DHT22;24035;48.900;9.188;2023-03-14T07:59:21;12.60;1.00
38239;DHT22;24035;48.900;9.188;2023-03-14T08:01:47;12.30;1.00
38239;DHT22;24035;48.900;9.188;2023-03-14T08:04:13;12.10;1.00
38239;DHT22;24035;48.900;9.188;2023-03-14T08:06:38;12.10;1.00
38239;DHT22;24035;48.900;9.188;2023-03-14T08:09:04;12.30;1.00
38239;DHT22;24035;48.900;9.188;2023-03-14T08:11:30;12.40;1.00
38239;DHT22;24035;48.900;9.188;2023-03-14T08:13:56;12.70;1.00
38239;DHT22;24035;48.900;9.188;2023-03-14T08:16:21;12.80;1.00
38239;DHT22;24035;48.900;9.188;2023-03-14T08:18:47;12.90;1.00
38239;DHT22;24035;48.900;9.188;2023-03-14T08:21:13;13.00;1.00
38239;DHT22;24035;48.900;9.188;2023-03-14T08:23:39;13.10;1.00
38239;DHT22;24035;48.900;9.188;2023-03-14T08:26:05;13.10;1.00
38239;DHT22;24035;48.900;9.188;2023-03-14T08:28:31;13.00;1.00
38239;DHT22;24035;48.900;9.188;2023-03-14T08:30:59;13.00;1.00
38239;DHT22;24035;48.900;9.188;2023-03-14T08:33:26;12.90;1.00
38239;DHT22;24035;48.900;9.188;2023-03-14T08:35:53;12.70;1.00
38239;DHT22;24035;48.900;9.188;2023-03-14T08:38:19;12.60;1.00
38239;DHT22;24035;48.900;9.188;2023-03-14T08:40:45;12.50;1.00
38239;DHT22;24035;48.900;9.188;2023-03-14T08:43:10;12.70;1.00
38239;DHT22;24035;48.900;9.188;2023-03-14T08:45:36;12.80;1.00
38239;DHT22;24035;48.900;9.188;2023-03-14T08:48:02;12.90;1.00
38239;DHT22;24035;48.900;9.188;2023-03-14T08:50:28;13.00;1.00
38239;DHT22;24035;48.900;9.188;2023-03-14T08:52:54;13.20;1.00
38239;DHT22;24035;48.900;9.188;2023-03-14T08:55:19;13.40;1.00
38239;DHT22;24035;48.900;9.188;2023-03-14T08:57:46;13.70;1.00
38239;DHT22;24035;48.900;9.188;2023-03-14T09:00:12;13.90;99.90
38239;DHT22;24035;48.900;9.188;2023-03-14T09:02:41;14.00;99.90
38239;DHT22;24035;48.900;9.188;2023-03-14T09:05:09;14.00;99.90
38239;DHT22;24035;48.900;9.188;2023-03-14T09:07:35;13.80;99.90
38239;DHT22;24035;48.900;9.188;2023-03-14T09:10:01;13.70;99.90
38239;DHT22;24035;48.900;9.188;2023-03-14T09:12:27;13.80;99.90
38239;DHT22;24035;48.900;9.188;2023-03-14T09:14:52;13.80;99.90
38239;DHT22;24035;48.900;9.188;2023-03-14T09:17:18;13.70;99.90
38239;DHT22;24035;48.900;9.188;2023-03-14T09:19:44;13.70;99.90
38239;DHT22;24035;48.900;9.188;2023-03-14T09:22:09;13.70;99.90
38239;DHT22;24035;48.900;9.188;2023-03-14T09:24:35;13.70;99.90
38239;DHT22;24035;48.900;9.188;2023-03-14T09:27:01;13.60;1.00
38239;DHT22;24035;48.900;9.188;2023-03-14T09:29:26;13.50;1.00
38239;DHT22;24035;48.900;9.188;2023-03-14T09:31:52;13.40;1.00
38239;DHT22;24035;48.900;9.188;2023-03-14T09:34:18;13.30;1.00
38239;DHT22;24035;48.900;9.188;2023-03-14T09:36:44;12.80;1.00
38239;DHT22;24035;48.900;9.188;2023-03-14T09:39:11;12.50;99.90
38239;DHT22;24035;48.900;9.188;2023-03-14T09:41:41;12.40;99.90
38239;DHT22;24035;48.900;9.188;2023-03-14T09:44:15;12.40;91.30
38239;DHT22;24035;48.900;9.188;2023-03-14T09:46:44;12.40;1.00
38239;DHT22;24035;48.900;9.188;2023-03-14T09:49:20;12.50;1.00
38239;DHT22;24035;48.900;9.188;2023-03-14T09:51:49;12.50;1.00
38239;DHT22;24035;48.900;9.188;2023-03-14T09:54:44;12.80;1.00
38239;DHT22;24035;48.900;9.188;2023-03-14T09:57:17;13.00;1.00
38239;DHT22;24035;48.900;9.188;2023-03-14T09:59:45;13.10;1.00
38239;DHT22;24035;48.900;9.188;2023-03-14T10:02:21;13.30;1.00
38239;DHT22;24035;48.900;9.188;2023-03-14T10:04:48;13.40;1.00
38239;DHT22;24035;48.900;9.188;2023-03-14T10:07:21;13.70;1.00
38239;DHT22;24035;48.900;9.188;2023-03-14T10:09:50;13.70;1.00
38239;DHT22;24035;48.900;9.188;2023-03-14T10:12:17;13.60;1.00
38239;DHT22;24035;48.900;9.188;2023-03-14T10:14:49;13.40;1.00
38239;DHT22;24035;48.900;9.188;2023-03-14T10:17:16;13.20;1.00
38239;DHT22;24035;48.900;9.188;2023-03-14T10:19:57;13.00;1.00
38239;DHT22;24035;48.900;9.188;2023-03-14T10:22:27;12.80;1.00
38239;DHT22;24035;48.900;9.188;2023-03-14T10:24:57;12.80;1.00
38239;DHT22;24035;48.900;9.188;2023-03-14T10:27:30;12.90;1.00
38239;DHT22;24035;48.900;9.188;2023-03-14T10:30:04;13.10;1.00
38239;DHT22;24035;48.900;9.188;2023-03-14T10:32:39;13.10;1.00
38239;DHT22;24035;48.900;9.188;2023-03-14T10:38:00;13.50;1.00
38239;DHT22;24035;48.900;9.188;2023-03-14T10:40:41;13.70;1.00
38239;DHT22;24035;48.900;9.188;2023-03-14T10:43:18;13.90;99.90
38239;DHT22;24035;48.900;9.188;2023-03-14T10:45:52;13.90;99.90
38239;DHT22;24035;48.900;9.188;2023-03-14T10:48:34;13.90;99.90
38239;DHT22;24035;48.900;9.188;2023-03-14T10:51:10;14.20;99.90
38239;DHT22;24035;48.900;9.188;2023-03-14T10:53:48;14.30;99.90
38239;DHT22;24035;48.900;9.188;2023-03-14T10:56:18;14.50;99.90
38239;DHT22;24035;48.900;9.188;2023-03-14T10:58:56;14.40;99.90
38239;DHT22;24035;48.900;9.188;2023-03-14T11:01:42;14.20;99.90
38239;DHT22;24035;48.900;9.188;2023-03-14T11:07:42;13.90;1.00
38239;DHT22;24035;48.900;9.188;2023-03-14T11:10:31;13.50;1.00
38239;DHT22;24035;48.900;9.188;2023-03-14T11:15:55;12.60;51.40
38239;DHT22;24035;48.900;9.188;2023-03-14T11:21:18;12.30;99.90
38239;DHT22;24035;48.900;9.188;2023-03-14T11:32:01;12.00;99.90
38239;DHT22;24035;48.900;9.188;2023-03-14T11:34:33;11.90;1.00
38239;DHT22;24035;48.900;9.188;2023-03-14T11:37:06;11.70;1.00
38239;DHT22;24035;48.900;9.188;2023-03-14T11:39:40;11.70;1.00
38239;DHT22;24035;48.900;9.188;2023-03-14T11:42:16;11.70;1.00
38239;DHT22;24035;48.900;9.188;2023-03-14T11:44:48;11.60;1.00
38239;DHT22;24035;48.900;9.188;2023-03-14T11:57:44;12.20;1.00
38239;DHT22;24035;48.900;9.188;2023-03-14T12:00:20;12.10;1.00
38239;DHT22;24035;48.900;9.188;2023-03-14T12:06:21;11.50;1.00
38239;DHT22;24035;48.900;9.188;2023-03-14T12:08:54;11.20;27.30
38239;DHT22;24035;48.900;9.188;2023-03-14T12:11:51;11.00;99.90
38239;DHT22;24035;48.900;9.188;2023-03-14T12:14:35;11.00;99.90
38239;DHT22;24035;48.900;9.188;2023-03-14T12:17:27;11.00;99.90
38239;DHT22;24035;48.900;9.188;2023-03-14T12:20:16;11.00;99.90
38239;DHT22;24035;48.900;9.188;2023-03-14T12:22:46;11.20;99.90
38239;DHT22;24035;48.900;9.188;2023-03-14T12:30:30;11.30;1.00
38239;DHT22;24035;48.900;9.188;2023-03-14T12:35:50;11.00;1.00
38239;DHT22;24035;48.900;9.188;2023-03-14T12:41:28;10.30;1.00
38239;DHT22;24035;48.900;9.188;2023-03-14T12:49:56;9.40;41.30
38239;DHT22;24035;48.900;9.188;2023-03-14T13:01:26;9.70;1.00
38239;DHT22;24035;48.900;9.188;2023-03-14T13:03:55;10.00;1.00
38239;DHT22;24035;48.900;9.188;2023-03-14T13:07:01;10.20;1.00
38239;DHT22;24035;48.900;9.188;2023-03-14T13:12:09;10.30;99.90
38239;DHT22;24035;48.900;9.188;2023-03-14T13:14:40;10.40;99.90
38239;DHT22;24035;48.900;9.188;2023-03-14T13:17:11;10.30;99.90
38239;DHT22;24035;48.900;9.188;2023-03-14T13:19:38;10.40;99.90
38239;DHT22;24035;48.900;9.188;2023-03-14T13:22:15;10.50;99.90
38239;DHT22;24035;48.900;9.188;2023-03-14T13:24:41;10.70;99.90
38239;DHT22;24035;48.900;9.188;2023-03-14T13:27:19;10.50;99.90
38239;DHT22;24035;48.900;9.188;2023-03-14T13:29:48;10.30;99.90
38239;DHT22;24035;48.900;9.188;2023-03-14T13:32:20;10.40;99.90
38239;DHT22;24035;48.900;9.188;2023-03-14T13:34:47;10.60;99.90
38239;DHT22;24035;48.900;9.188;2023-03-14T13:37:22;10.70;99.90
38239;DHT22;24035;48.900;9.188;2023-03-14T13:39:56;10.70;99.90
38239;DHT22;24035;48.900;9.188;2023-03-14T13:42:26;10.80;99.90
38239;DHT22;24035;48.900;9.188;2023-03-14T13:44:57;10.80;99.90
38239;DHT22;24035;48.900;9.188;2023-03-14T13:47:26;10.60;99.90
38239;DHT22;24035;48.900;9.188;2023-03-14T13:49:52;10.50;99.90
38239;DHT22;24035;48.900;9.188;2023-03-14T13:52:29;10.30;99.90
38239;DHT22;24035;48.900;9.188;2023-03-14T13:54:56;10.40;99.90
38239;DHT22;24035;48.900;9.188;2023-03-14T13:57:23;10.50;99.90
38239;DHT22;24035;48.900;9.188;2023-03-14T14:00:06;10.40;99.90
38239;DHT22;24035;48.900;9.188;2023-03-14T14:02:37;10.40;99.90
38239;DHT22;24035;48.900;9.188;2023-03-14T14:05:04;10.40;99.90
38239;DHT22;24035;48.900;9.188;2023-03-14T14:07:30;10.30;99.90
38239;DHT22;24035;48.900;9.188;2023-03-14T14:09:56;10.10;99.90
38239;DHT22;24035;48.900;9.188;2023-03-14T14:12:28;10.10;99.90
38239;DHT22;24035;48.900;9.188;2023-03-14T14:14:59;10.00;99.90
38239;DHT22;24035;48.900;9.188;2023-03-14T14:17:36;9.80;99.90
38239;DHT22;24035;48.900;9.188;2023-03-14T14:20:06;9.80;99.90
38239;DHT22;24035;48.900;9.188;2023-03-14T14:22:33;9.80;99.90
38239;DHT22;24035;48.900;9.188;2023-03-14T14:24:59;9.60;99.90
38239;DHT22;24035;48.900;9.188;2023-03-14T14:27:35;9.50;99.90
38239;DHT22;24035;48.900;9.188;2023-03-14T14:32:50;9.60;99.90
38239;DHT22;24035;48.900;9.188;2023-03-14T14:35:33;9.70;99.90
38239;DHT22;24035;48.900;9.188;2023-03-14T14:37:59;9.70;99.90
38239;DHT22;24035;48.900;9.188;2023-03-14T14:40:27;9.80;99.90
38239;DHT22;24035;48.900;9.188;2023-03-14T14:42:55;9.60;99.90
38239;DHT22;24035;48.900;9.188;2023-03-14T14:45:23;9.60;99.90
38239;DHT22;24035;48.900;9.188;2023-03-14T14:47:58;9.50;99.90
38239;DHT22;24035;48.900;9.188;2023-03-14T14:53:27;9.50;99.90
38239;DHT22;24035;48.900;9.188;2023-03-14T14:55:56;9.60;99.90
38239;DHT22;24035;48.900;9.188;2023-03-14T15:03:30;9.50;99.90
38239;DHT22;24035;48.900;9.188;2023-03-14T15:05:57;9.60;99.90
38239;DHT22;24035;48.900;9.188;2023-03-14T15:08:27;9.70;99.90
38239;DHT22;24035;48.900;9.188;2023-03-14T15:10:54;9.90;99.90
38239;DHT22;24035;48.900;9.188;2023-03-14T15:13:20;10.00;99.90
38239;DHT22;24035;48.900;9.188;2023-03-14T15:15:46;10.00;99.90
38239;DHT22;24035;48.900;9.188;2023-03-14T15:18:15;10.10;99.90
38239;DHT22;24035;48.900;9.188;2023-03-14T15:20:42;10.20;99.90
38239;DHT22;24035;48.900;9.188;2023-03-14T15:23:10;10.40;99.90
38239;DHT22;24035;48.900;9.188;2023-03-14T15:25:36;10.40;99.90
38239;DHT22;24035;48.900;9.188;2023-03-14T15:28:10;10.20;99.90
38239;DHT22;24035;48.900;9.188;2023-03-14T15:30:37;10.00;99.90
38239;DHT22;24035;48.900;9.188;2023-03-14T15:33:03;9.90;99.90
38239;DHT22;24035;48.900;9.188;2023-03-14T15:35:28;9.90;99.90
38239;DHT22;24035;48.900;9.188;2023-03-14T15:37:54;9.70;99.90
38239;DHT22;24035;48.900;9.188;2023-03-14T15:40:21;9.70;99.90
38239;DHT22;24035;48.900;9.188;2023-03-14T15:42:49;9.70;99.90
38239;DHT22;24035;48.900;9.188;2023-03-14T15:45:15;9.70;99.90
38239;DHT22;24035;48.900;9.188;2023-03-14T15:47:40;9.70;99.90
38239;DHT22;24035;48.900;9.188;2023-03-14T15:50:08;9.60;99.90
38239;DHT22;24035;48.900;9.188;2023-03-14T15:52:35;9.40;99.90
38239;DHT22;24035;48.900;9.188;2023-03-14T15:55:00;9.30;99.90
38239;DHT22;24035;48.900;9.188;2023-03-14T15:57:26;9.20;99.90
38239;DHT22;24035;48.900;9.188;2023-03-14T15:59:52;9.00;99.90
38239;DHT22;24035;48.900;9.188;2023-03-14T16:02:20;8.90;99.90
38239;DHT22;24035;48.900;9.188;2023-03-14T16:04:46;8.90;99.90
38239;DHT22;24035;48.900;9.188;2023-03-14T16:07:15;8.80;99.90
38239;DHT22;24035;48.900;9.188;2023-03-14T16:09:44;8.90;99.90
38239;DHT22;24035;48.900;9.188;2023-03-14T16:12:13;8.90;99.90
38239;DHT22;24035;48.900;9.188;2023-03-14T16:14:38;8.90;99.90
38239;DHT22;24035;48.900;9.188;2023-03-14T16:17:08;8.80;99.90
38239;DHT22;24035;48.900;9.188;2023-03-14T16:19:36;8.80;99.90
38239;DHT22;24035;48.900;9.188;2023-03-14T16:22:02;8.70;99.90
38239;DHT22;24035;48.900;9.188;2023-03-14T16:24:28;8.60;99.90
38239;DHT22;24035;48.900;9.188;2023-03-14T16:26:54;8.60;99.90
38239;DHT22;24035;48.900;9.188;2023-03-14T16:29:20;8.60;99.90
38239;DHT22;24035;48.900;9.188;2023-03-14T16:31:45;8.60;99.90
38239;DHT22;24035;48.900;9.188;2023-03-14T16:34:11;8.70;99.90
38239;DHT22;24035;48.900;9.188;2023-03-14T16:36:37;8.70;99.90
38239;DHT22;24035;48.900;9.188;2023-03-14T16:39:03;8.70;99.90
38239;DHT22;24035;48.900;9.188;2023-03-14T16:41:29;8.70;99.90
38239;DHT22;24035;48.900;9.188;2023-03-14T16:43:59;8.70;99.90
38239;DHT22;24035;48.900;9.188;2023-03-14T16:46:27;8.60;99.90
38239;DHT22;24035;48.900;9.188;2023-03-14T16:48:55;8.60;99.90
38239;DHT22;24035;48.900;9.188;2023-03-14T16:51:21;8.40;99.90
38239;DHT22;24035;48.900;9.188;2023-03-14T16:53:47;8.10;99.90
38239;DHT22;24035;48.900;9.188;2023-03-14T16:56:13;7.80;1.00
38239;DHT22;24035;48.900;9.188;2023-03-14T16:58:47;7.70;1.00
38239;DHT22;24035;48.900;9.188;2023-03-14T17:01:20;7.70;1.00
38239;DHT22;24035;48.900;9.188;2023-03-14T17:03:48;7.60;1.00
38239;DHT22;24035;48.900;9.188;2023-03-14T17:06:20;7.60;1.00
38239;DHT22;24035;48.900;9.188;2023-03-14T17:08:48;7.60;1.00
38239;DHT22;24035;48.900;9.188;2023-03-14T17:11:16;7.50;1.00
38239;DHT22;24035;48.900;9.188;2023-03-14T17:13:42;7.30;1.00
38239;DHT22;24035;48.900;9.188;2023-03-14T17:16:08;7.10;99.90
38239;DHT22;24035;48.900;9.188;2023-03-14T17:18:34;6.90;99.90
38239;DHT22;24035;48.900;9.188;2023-03-14T17:21:01;6.70;1.00
38239;DHT22;24035;48.900;9.188;2023-03-14T17:23:29;6.60;1.00
38239;DHT22;24035;48.900;9.188;2023-03-14T17:25:55;6.60;1.00
38239;DHT22;24035;48.900;9.188;2023-03-14T17:28:22;6.50;1.00
38239;DHT22;24035;48.900;9.188;2023-03-14T17:30:48;6.50;1.00